sensor_id;sensor_type;location;lat;lon;timestamp;P1;durP1;ratioP1;P2;durP2;ratioP2
17171;SDS011;8701;50.150;8.756;2022-08-21T00:02:52;9.17;;;5.33;;
17171;SDS011;8701;50.150;8.756;2022-08-21T00:06:56;7.63;;;5.37;;
17171;SDS011;8701;50.150;8.756;2022-08-21T00:10:59;9.40;;;5.50;;
17171;SDS011;8701;50.150;8.756;2022-08-21T00:15:03;9.63;;;5.40;;
17171;SDS011;8701;50.150;8.756;2022-08-21T00:19:07;7.83;;;5.00;;
17171;SDS011;8701;50.150;8.756;2022-08-21T00:23:10;14.20;;;5.87;;
17171;SDS011;8701;50.150;8.756;2022-08-21T00:27:16;10.97;;;5.70;;
17171;SDS011;8701;50.150;8.756;2022-08-21T00:31:20;7.97;;;5.20;;
17171;SDS011;8701;50.150;8.756;2022-08-21T00:35:24;6.70;;;5.30;;
17171;SDS011;8701;50.150;8.756;2022-08-21T00:39:28;12.40;;;5.50;;
17171;SDS011;8701;50.150;8.756;2022-08-21T00:43:32;8.73;;;4.90;;
17171;SDS011;8701;50.150;8.756;2022-08-21T00:47:37;10.30;;;5.30;;
17171;SDS011;8701;50.150;8.756;2022-08-21T00:51:43;9.57;;;5.23;;
17171;SDS011;8701;50.150;8.756;2022-08-21T00:55:50;10.30;;;6.57;;
17171;SDS011;8701;50.150;8.756;2022-08-21T00:59:54;12.50;;;5.40;;
17171;SDS011;8701;50.150;8.756;2022-08-21T01:08:45;9.77;;;5.53;;
17171;SDS011;8701;50.150;8.756;2022-08-21T01:12:48;10.00;;;5.50;;
17171;SDS011;8701;50.150;8.756;2022-08-21T01:16:53;10.33;;;5.10;;
17171;SDS011;8701;50.150;8.756;2022-08-21T01:21:07;9.43;;;4.97;;
17171;SDS011;8701;50.150;8.756;2022-08-21T01:25:11;9.47;;;5.67;;
17171;SDS011;8701;50.150;8.756;2022-08-21T01:29:16;8.47;;;4.93;;
17171;SDS011;8701;50.150;8.756;2022-08-21T01:33:29;8.07;;;5.43;;
17171;SDS011;8701;50.150;8.756;2022-08-21T01:37:33;10.03;;;5.00;;
17171;SDS011;8701;50.150;8.756;2022-08-21T01:41:36;12.87;;;5.70;;
17171;SDS011;8701;50.150;8.756;2022-08-21T01:45:41;9.10;;;5.43;;
17171;SDS011;8701;50.150;8.756;2022-08-21T01:49:43;8.83;;;5.13;;
17171;SDS011;8701;50.150;8.756;2022-08-21T01:53:47;6.93;;;4.77;;
17171;SDS011;8701;50.150;8.756;2022-08-21T01:57:51;8.53;;;5.33;;
17171;SDS011;8701;50.150;8.756;2022-08-21T02:01:53;7.10;;;4.90;;
17171;SDS011;8701;50.150;8.756;2022-08-21T02:05:56;7.03;;;4.90;;
17171;SDS011;8701;50.150;8.756;2022-08-21T02:10:00;8.40;;;4.90;;
17171;SDS011;8701;50.150;8.756;2022-08-21T02:14:02;6.70;;;4.70;;
17171;SDS011;8701;50.150;8.756;2022-08-21T02:18:05;8.33;;;6.30;;
17171;SDS011;8701;50.150;8.756;2022-08-21T02:22:08;7.40;;;5.70;;
17171;SDS011;8701;50.150;8.756;2022-08-21T02:26:12;5.60;;;4.70;;
17171;SDS011;8701;50.150;8.756;2022-08-21T02:30:15;10.63;;;6.17;;
17171;SDS011;8701;50.150;8.756;2022-08-21T02:34:19;10.63;;;5.33;;
17171;SDS011;8701;50.150;8.756;2022-08-21T02:38:22;7.87;;;4.90;;
17171;SDS011;8701;50.150;8.756;2022-08-21T02:42:29;6.37;;;4.67;;
17171;SDS011;8701;50.150;8.756;2022-08-21T02:46:31;7.77;;;5.10;;
17171;SDS011;8701;50.150;8.756;2022-08-21T02:50:34;7.87;;;5.23;;
17171;SDS011;8701;50.150;8.756;2022-08-21T02:54:38;6.23;;;5.27;;
17171;SDS011;8701;50.150;8.756;2022-08-21T02:58:43;6.57;;;5.00;;
17171;SDS011;8701;50.150;8.756;2022-08-21T03:02:48;7.47;;;5.93;;
17171;SDS011;8701;50.150;8.756;2022-08-21T03:06:51;5.30;;;4.70;;
17171;SDS011;8701;50.150;8.756;2022-08-21T03:10:53;5.70;;;4.73;;
17171;SDS011;8701;50.150;8.756;2022-08-21T03:14:57;7.30;;;5.30;;
17171;SDS011;8701;50.150;8.756;2022-08-21T03:18:59;7.40;;;4.80;;
17171;SDS011;8701;50.150;8.756;2022-08-21T03:23:03;8.00;;;5.30;;
17171;SDS011;8701;50.150;8.756;2022-08-21T03:27:08;7.23;;;5.03;;
17171;SDS011;8701;50.150;8.756;2022-08-21T03:31:11;7.63;;;5.20;;
17171;SDS011;8701;50.150;8.756;2022-08-21T03:35:14;6.47;;;5.00;;
17171;SDS011;8701;50.150;8.756;2022-08-21T03:39:17;10.03;;;5.93;;
17171;SDS011;8701;50.150;8.756;2022-08-21T03:43:19;10.03;;;5.90;;
17171;SDS011;8701;50.150;8.756;2022-08-21T03:47:23;6.57;;;4.60;;
17171;SDS011;8701;50.150;8.756;2022-08-21T03:51:25;7.50;;;5.37;;
17171;SDS011;8701;50.150;8.756;2022-08-21T03:55:28;8.87;;;5.93;;
17171;SDS011;8701;50.150;8.756;2022-08-21T03:59:30;12.70;;;5.77;;
17171;SDS011;8701;50.150;8.756;2022-08-21T04:03:35;7.37;;;5.63;;
17171;SDS011;8701;50.150;8.756;2022-08-21T04:07:38;9.53;;;5.80;;
17171;SDS011;8701;50.150;8.756;2022-08-21T04:11:41;9.73;;;5.40;;
17171;SDS011;8701;50.150;8.756;2022-08-21T04:15:43;9.47;;;5.93;;
17171;SDS011;8701;50.150;8.756;2022-08-21T04:19:47;7.57;;;5.30;;
17171;SDS011;8701;50.150;8.756;2022-08-21T04:23:49;11.77;;;5.30;;
17171;SDS011;8701;50.150;8.756;2022-08-21T04:27:52;9.87;;;6.13;;
17171;SDS011;8701;50.150;8.756;2022-08-21T04:31:55;7.97;;;5.77;;
17171;SDS011;8701;50.150;8.756;2022-08-21T04:35:59;10.83;;;5.60;;
17171;SDS011;8701;50.150;8.756;2022-08-21T04:40:02;6.93;;;6.20;;
17171;SDS011;8701;50.150;8.756;2022-08-21T04:44:05;7.30;;;6.00;;
17171;SDS011;8701;50.150;8.756;2022-08-21T04:48:10;11.67;;;6.50;;
17171;SDS011;8701;50.150;8.756;2022-08-21T04:52:17;9.57;;;6.20;;
17171;SDS011;8701;50.150;8.756;2022-08-21T04:56:25;10.10;;;6.70;;
17171;SDS011;8701;50.150;8.756;2022-08-21T05:00:31;6.70;;;5.80;;
17171;SDS011;8701;50.150;8.756;2022-08-21T05:04:34;16.93;;;6.37;;
17171;SDS011;8701;50.150;8.756;2022-08-21T05:08:42;13.90;;;7.50;;
17171;SDS011;8701;50.150;8.756;2022-08-21T05:12:47;8.03;;;6.70;;
17171;SDS011;8701;50.150;8.756;2022-08-21T05:16:50;10.23;;;7.20;;
17171;SDS011;8701;50.150;8.756;2022-08-21T05:20:52;9.80;;;7.50;;
17171;SDS011;8701;50.150;8.756;2022-08-21T05:24:56;11.23;;;7.40;;
17171;SDS011;8701;50.150;8.756;2022-08-21T05:28:59;13.30;;;7.30;;
17171;SDS011;8701;50.150;8.756;2022-08-21T05:33:02;13.10;;;6.93;;
17171;SDS011;8701;50.150;8.756;2022-08-21T05:37:05;9.03;;;6.90;;
17171;SDS011;8701;50.150;8.756;2022-08-21T05:41:09;12.20;;;8.00;;
17171;SDS011;8701;50.150;8.756;2022-08-21T05:45:12;18.00;;;7.47;;
17171;SDS011;8701;50.150;8.756;2022-08-21T05:49:14;13.10;;;9.10;;
17171;SDS011;8701;50.150;8.756;2022-08-21T05:57:28;10.33;;;7.97;;
17171;SDS011;8701;50.150;8.756;2022-08-21T06:01:31;12.07;;;8.50;;
17171;SDS011;8701;50.150;8.756;2022-08-21T06:05:33;12.00;;;7.60;;
17171;SDS011;8701;50.150;8.756;2022-08-21T06:09:35;12.20;;;7.40;;
17171;SDS011;8701;50.150;8.756;2022-08-21T06:13:40;8.97;;;7.90;;
17171;SDS011;8701;50.150;8.756;2022-08-21T06:17:42;13.60;;;10.17;;
17171;SDS011;8701;50.150;8.756;2022-08-21T06:21:44;12.47;;;8.60;;
17171;SDS011;8701;50.150;8.756;2022-08-21T06:25:47;11.10;;;8.80;;
17171;SDS011;8701;50.150;8.756;2022-08-21T06:29:51;12.50;;;7.47;;
17171;SDS011;8701;50.150;8.756;2022-08-21T06:33:53;9.60;;;8.27;;
17171;SDS011;8701;50.150;8.756;2022-08-21T06:37:56;12.07;;;7.80;;
17171;SDS011;8701;50.150;8.756;2022-08-21T06:41:59;13.73;;;8.27;;
17171;SDS011;8701;50.150;8.756;2022-08-21T06:46:04;13.30;;;7.67;;
17171;SDS011;8701;50.150;8.756;2022-08-21T06:50:08;9.10;;;7.40;;
17171;SDS011;8701;50.150;8.756;2022-08-21T06:54:10;14.37;;;8.20;;
17171;SDS011;8701;50.150;8.756;2022-08-21T06:58:13;9.80;;;7.30;;
17171;SDS011;8701;50.150;8.756;2022-08-21T07:02:17;10.73;;;6.87;;
17171;SDS011;8701;50.150;8.756;2022-08-21T07:06:20;10.37;;;7.10;;
17171;SDS011;8701;50.150;8.756;2022-08-21T07:10:22;12.93;;;7.30;;
17171;SDS011;8701;50.150;8.756;2022-08-21T07:14:25;14.10;;;6.57;;
17171;SDS011;8701;50.150;8.756;2022-08-21T07:18:29;9.97;;;6.87;;
17171;SDS011;8701;50.150;8.756;2022-08-21T07:22:31;15.93;;;8.20;;
17171;SDS011;8701;50.150;8.756;2022-08-21T07:26:35;12.47;;;7.83;;
17171;SDS011;8701;50.150;8.756;2022-08-21T07:30:38;19.30;;;6.40;;
17171;SDS011;8701;50.150;8.756;2022-08-21T07:34:42;10.17;;;7.70;;
17171;SDS011;8701;50.150;8.756;2022-08-21T07:38:45;12.73;;;7.50;;
17171;SDS011;8701;50.150;8.756;2022-08-21T07:42:48;10.07;;;6.50;;
17171;SDS011;8701;50.150;8.756;2022-08-21T07:46:52;8.30;;;7.37;;
17171;SDS011;8701;50.150;8.756;2022-08-21T07:50:55;8.77;;;6.80;;
17171;SDS011;8701;50.150;8.756;2022-08-21T07:54:58;9.43;;;6.70;;
17171;SDS011;8701;50.150;8.756;2022-08-21T07:59:01;7.77;;;6.73;;
17171;SDS011;8701;50.150;8.756;2022-08-21T08:07:16;9.40;;;5.90;;
17171;SDS011;8701;50.150;8.756;2022-08-21T08:11:19;7.30;;;5.70;;
17171;SDS011;8701;50.150;8.756;2022-08-21T08:15:24;5.90;;;4.87;;
17171;SDS011;8701;50.150;8.756;2022-08-21T08:19:27;9.47;;;5.57;;
17171;SDS011;8701;50.150;8.756;2022-08-21T08:23:32;5.60;;;5.10;;
17171;SDS011;8701;50.150;8.756;2022-08-21T08:27:35;8.30;;;4.60;;
17171;SDS011;8701;50.150;8.756;2022-08-21T08:31:37;7.47;;;4.50;;
17171;SDS011;8701;50.150;8.756;2022-08-21T08:35:40;8.10;;;4.80;;
17171;SDS011;8701;50.150;8.756;2022-08-21T08:39:45;6.10;;;4.30;;
17171;SDS011;8701;50.150;8.756;2022-08-21T08:43:49;7.00;;;4.47;;
17171;SDS011;8701;50.150;8.756;2022-08-21T08:47:55;6.83;;;4.43;;
17171;SDS011;8701;50.150;8.756;2022-08-21T08:52:02;6.23;;;4.10;;
17171;SDS011;8701;50.150;8.756;2022-08-21T08:56:08;5.20;;;3.97;;
17171;SDS011;8701;50.150;8.756;2022-08-21T09:00:13;6.30;;;4.60;;
17171;SDS011;8701;50.150;8.756;2022-08-21T09:04:26;6.23;;;4.30;;
17171;SDS011;8701;50.150;8.756;2022-08-21T09:08:37;6.20;;;4.00;;
17171;SDS011;8701;50.150;8.756;2022-08-21T09:12:52;6.07;;;3.77;;
17171;SDS011;8701;50.150;8.756;2022-08-21T09:17:02;4.30;;;3.50;;
17171;SDS011;8701;50.150;8.756;2022-08-21T09:21:16;6.57;;;3.50;;
17171;SDS011;8701;50.150;8.756;2022-08-21T09:25:27;5.80;;;3.40;;
17171;SDS011;8701;50.150;8.756;2022-08-21T09:29:35;6.27;;;3.00;;
17171;SDS011;8701;50.150;8.756;2022-08-21T09:33:39;6.53;;;2.83;;
17171;SDS011;8701;50.150;8.756;2022-08-21T09:37:48;4.50;;;2.93;;
17171;SDS011;8701;50.150;8.756;2022-08-21T09:41:57;5.40;;;2.73;;
17171;SDS011;8701;50.150;8.756;2022-08-21T09:46:04;4.37;;;3.10;;
17171;SDS011;8701;50.150;8.756;2022-08-21T09:50:12;4.00;;;2.77;;
17171;SDS011;8701;50.150;8.756;2022-08-21T09:54:17;4.90;;;2.77;;
17171;SDS011;8701;50.150;8.756;2022-08-21T09:58:29;6.87;;;2.80;;
17171;SDS011;8701;50.150;8.756;2022-08-21T10:02:34;6.37;;;3.60;;
17171;SDS011;8701;50.150;8.756;2022-08-21T10:06:37;4.73;;;3.30;;
17171;SDS011;8701;50.150;8.756;2022-08-21T10:10:40;5.73;;;2.80;;
17171;SDS011;8701;50.150;8.756;2022-08-21T10:14:46;6.37;;;2.80;;
17171;SDS011;8701;50.150;8.756;2022-08-21T10:19:01;6.13;;;3.13;;
17171;SDS011;8701;50.150;8.756;2022-08-21T10:23:20;3.90;;;2.90;;
17171;SDS011;8701;50.150;8.756;2022-08-21T10:27:31;6.90;;;2.70;;
17171;SDS011;8701;50.150;8.756;2022-08-21T10:31:42;3.60;;;2.50;;
17171;SDS011;8701;50.150;8.756;2022-08-21T10:35:54;5.60;;;3.10;;
17171;SDS011;8701;50.150;8.756;2022-08-21T10:40:06;3.10;;;2.20;;
17171;SDS011;8701;50.150;8.756;2022-08-21T10:44:17;4.90;;;2.77;;
17171;SDS011;8701;50.150;8.756;2022-08-21T10:48:28;5.80;;;2.47;;
17171;SDS011;8701;50.150;8.756;2022-08-21T10:52:44;4.60;;;2.50;;
17171;SDS011;8701;50.150;8.756;2022-08-21T10:56:55;5.33;;;2.80;;
17171;SDS011;8701;50.150;8.756;2022-08-21T11:01:04;3.50;;;2.50;;
17171;SDS011;8701;50.150;8.756;2022-08-21T11:05:14;4.30;;;2.60;;
17171;SDS011;8701;50.150;8.756;2022-08-21T11:09:22;3.73;;;2.83;;
17171;SDS011;8701;50.150;8.756;2022-08-21T11:13:29;6.27;;;2.63;;
17171;SDS011;8701;50.150;8.756;2022-08-21T11:17:41;4.00;;;2.47;;
17171;SDS011;8701;50.150;8.756;2022-08-21T11:21:50;2.13;;;1.90;;
17171;SDS011;8701;50.150;8.756;2022-08-21T11:26:02;3.27;;;2.17;;
17171;SDS011;8701;50.150;8.756;2022-08-21T11:30:10;6.30;;;2.17;;
17171;SDS011;8701;50.150;8.756;2022-08-21T11:34:16;3.00;;;2.17;;
17171;SDS011;8701;50.150;8.756;2022-08-21T11:38:31;3.80;;;2.30;;
17171;SDS011;8701;50.150;8.756;2022-08-21T11:42:40;2.03;;;1.83;;
17171;SDS011;8701;50.150;8.756;2022-08-21T11:46:57;2.20;;;2.03;;
17171;SDS011;8701;50.150;8.756;2022-08-21T11:51:07;2.57;;;1.93;;
17171;SDS011;8701;50.150;8.756;2022-08-21T11:55:16;2.70;;;1.97;;
17171;SDS011;8701;50.150;8.756;2022-08-21T11:59:30;3.33;;;2.30;;
17171;SDS011;8701;50.150;8.756;2022-08-21T12:03:51;3.40;;;2.40;;
17171;SDS011;8701;50.150;8.756;2022-08-21T12:08:06;4.23;;;2.60;;
17171;SDS011;8701;50.150;8.756;2022-08-21T12:12:13;3.33;;;2.50;;
17171;SDS011;8701;50.150;8.756;2022-08-21T12:16:31;9.00;;;3.20;;
17171;SDS011;8701;50.150;8.756;2022-08-21T12:20:37;5.70;;;2.60;;
17171;SDS011;8701;50.150;8.756;2022-08-21T12:24:42;4.00;;;2.73;;
17171;SDS011;8701;50.150;8.756;2022-08-21T12:28:47;3.10;;;2.30;;
17171;SDS011;8701;50.150;8.756;2022-08-21T12:32:55;7.63;;;2.30;;
17171;SDS011;8701;50.150;8.756;2022-08-21T12:36:59;2.70;;;2.37;;
17171;SDS011;8701;50.150;8.756;2022-08-21T12:41:05;7.50;;;2.70;;
17171;SDS011;8701;50.150;8.756;2022-08-21T12:45:14;4.13;;;2.60;;
17171;SDS011;8701;50.150;8.756;2022-08-21T12:49:26;4.40;;;2.63;;
17171;SDS011;8701;50.150;8.756;2022-08-21T12:53:33;3.23;;;2.33;;
17171;SDS011;8701;50.150;8.756;2022-08-21T12:57:41;6.27;;;2.60;;
17171;SDS011;8701;50.150;8.756;2022-08-21T13:01:45;2.13;;;1.97;;
17171;SDS011;8701;50.150;8.756;2022-08-21T13:05:51;3.33;;;2.40;;
17171;SDS011;8701;50.150;8.756;2022-08-21T13:09:59;3.77;;;2.37;;
17171;SDS011;8701;50.150;8.756;2022-08-21T13:14:06;3.87;;;2.30;;
17171;SDS011;8701;50.150;8.756;2022-08-21T13:18:20;2.30;;;1.93;;
17171;SDS011;8701;50.150;8.756;2022-08-21T13:22:25;2.30;;;2.10;;
17171;SDS011;8701;50.150;8.756;2022-08-21T13:26:29;3.07;;;2.20;;
17171;SDS011;8701;50.150;8.756;2022-08-21T13:30:31;4.37;;;2.70;;
17171;SDS011;8701;50.150;8.756;2022-08-21T13:34:34;1.80;;;1.70;;
17171;SDS011;8701;50.150;8.756;2022-08-21T13:38:40;5.13;;;2.40;;
17171;SDS011;8701;50.150;8.756;2022-08-21T13:42:45;3.87;;;2.40;;
17171;SDS011;8701;50.150;8.756;2022-08-21T13:46:49;6.10;;;2.10;;
17171;SDS011;8701;50.150;8.756;2022-08-21T13:50:52;2.17;;;2.00;;
17171;SDS011;8701;50.150;8.756;2022-08-21T13:54:57;3.80;;;2.17;;
17171;SDS011;8701;50.150;8.756;2022-08-21T13:59:02;3.17;;;2.00;;
17171;SDS011;8701;50.150;8.756;2022-08-21T14:03:06;4.57;;;2.63;;
17171;SDS011;8701;50.150;8.756;2022-08-21T14:07:14;2.00;;;1.90;;
17171;SDS011;8701;50.150;8.756;2022-08-21T14:11:19;6.73;;;2.47;;
17171;SDS011;8701;50.150;8.756;2022-08-21T14:15:23;3.20;;;2.10;;
17171;SDS011;8701;50.150;8.756;2022-08-21T14:19:35;2.50;;;2.30;;
17171;SDS011;8701;50.150;8.756;2022-08-21T14:23:40;2.40;;;2.10;;
17171;SDS011;8701;50.150;8.756;2022-08-21T14:27:48;4.77;;;2.57;;
17171;SDS011;8701;50.150;8.756;2022-08-21T14:31:53;2.57;;;2.20;;
17171;SDS011;8701;50.150;8.756;2022-08-21T14:35:57;3.90;;;2.97;;
17171;SDS011;8701;50.150;8.756;2022-08-21T14:40:01;4.83;;;2.50;;
17171;SDS011;8701;50.150;8.756;2022-08-21T14:44:06;8.00;;;2.80;;
17171;SDS011;8701;50.150;8.756;2022-08-21T14:48:10;3.27;;;2.20;;
17171;SDS011;8701;50.150;8.756;2022-08-21T14:52:12;4.93;;;2.47;;
17171;SDS011;8701;50.150;8.756;2022-08-21T14:56:15;6.60;;;2.60;;
17171;SDS011;8701;50.150;8.756;2022-08-21T15:00:21;5.87;;;2.50;;
17171;SDS011;8701;50.150;8.756;2022-08-21T15:04:25;3.57;;;2.30;;
17171;SDS011;8701;50.150;8.756;2022-08-21T15:08:27;3.83;;;2.50;;
17171;SDS011;8701;50.150;8.756;2022-08-21T15:12:30;2.37;;;2.17;;
17171;SDS011;8701;50.150;8.756;2022-08-21T15:16:34;3.10;;;2.20;;
17171;SDS011;8701;50.150;8.756;2022-08-21T15:20:37;3.47;;;2.27;;
17171;SDS011;8701;50.150;8.756;2022-08-21T15:24:39;8.07;;;2.47;;
17171;SDS011;8701;50.150;8.756;2022-08-21T15:28:42;2.70;;;2.17;;
17171;SDS011;8701;50.150;8.756;2022-08-21T15:32:45;3.13;;;2.13;;
17171;SDS011;8701;50.150;8.756;2022-08-21T15:36:48;4.03;;;2.10;;
17171;SDS011;8701;50.150;8.756;2022-08-21T15:40:50;5.63;;;2.70;;
17171;SDS011;8701;50.150;8.756;2022-08-21T15:44:53;2.63;;;2.00;;
17171;SDS011;8701;50.150;8.756;2022-08-21T15:48:57;4.03;;;2.30;;
17171;SDS011;8701;50.150;8.756;2022-08-21T15:53:00;4.70;;;2.63;;
17171;SDS011;8701;50.150;8.756;2022-08-21T15:57:02;3.00;;;2.10;;
17171;SDS011;8701;50.150;8.756;2022-08-21T16:01:05;4.50;;;2.40;;
17171;SDS011;8701;50.150;8.756;2022-08-21T16:05:09;5.13;;;2.20;;
17171;SDS011;8701;50.150;8.756;2022-08-21T16:09:12;6.20;;;1.87;;
17171;SDS011;8701;50.150;8.756;2022-08-21T16:13:16;4.17;;;2.03;;
17171;SDS011;8701;50.150;8.756;2022-08-21T16:17:24;3.73;;;2.33;;
17171;SDS011;8701;50.150;8.756;2022-08-21T16:21:31;2.80;;;1.80;;
17171;SDS011;8701;50.150;8.756;2022-08-21T16:25:34;3.37;;;1.97;;
17171;SDS011;8701;50.150;8.756;2022-08-21T16:29:37;3.60;;;2.00;;
17171;SDS011;8701;50.150;8.756;2022-08-21T16:33:41;7.03;;;1.93;;
17171;SDS011;8701;50.150;8.756;2022-08-21T16:37:46;4.13;;;2.00;;
17171;SDS011;8701;50.150;8.756;2022-08-21T16:41:49;5.37;;;2.10;;
17171;SDS011;8701;50.150;8.756;2022-08-21T16:45:52;3.10;;;1.90;;
17171;SDS011;8701;50.150;8.756;2022-08-21T16:49:55;3.60;;;2.07;;
17171;SDS011;8701;50.150;8.756;2022-08-21T16:54:00;2.53;;;1.90;;
17171;SDS011;8701;50.150;8.756;2022-08-21T16:58:04;2.17;;;1.93;;
17171;SDS011;8701;50.150;8.756;2022-08-21T17:02:17;2.90;;;2.10;;
17171;SDS011;8701;50.150;8.756;2022-08-21T17:06:24;3.97;;;2.10;;
17171;SDS011;8701;50.150;8.756;2022-08-21T17:10:31;3.63;;;2.80;;
17171;SDS011;8701;50.150;8.756;2022-08-21T17:14:33;3.70;;;2.40;;
17171;SDS011;8701;50.150;8.756;2022-08-21T17:18:37;9.23;;;4.47;;
17171;SDS011;8701;50.150;8.756;2022-08-21T17:22:39;5.53;;;3.20;;
17171;SDS011;8701;50.150;8.756;2022-08-21T17:26:43;3.30;;;2.40;;
17171;SDS011;8701;50.150;8.756;2022-08-21T17:30:46;4.73;;;2.80;;
17171;SDS011;8701;50.150;8.756;2022-08-21T17:34:48;3.97;;;2.20;;
17171;SDS011;8701;50.150;8.756;2022-08-21T17:38:51;5.00;;;2.47;;
17171;SDS011;8701;50.150;8.756;2022-08-21T17:42:55;8.00;;;2.87;;
17171;SDS011;8701;50.150;8.756;2022-08-21T17:46:58;3.40;;;2.37;;
17171;SDS011;8701;50.150;8.756;2022-08-21T17:51:00;5.33;;;2.57;;
17171;SDS011;8701;50.150;8.756;2022-08-21T17:55:03;2.73;;;2.20;;
17171;SDS011;8701;50.150;8.756;2022-08-21T17:59:08;2.77;;;2.00;;
17171;SDS011;8701;50.150;8.756;2022-08-21T18:03:13;2.80;;;1.77;;
17171;SDS011;8701;50.150;8.756;2022-08-21T18:07:17;4.20;;;2.00;;
17171;SDS011;8701;50.150;8.756;2022-08-21T18:11:20;7.23;;;2.13;;
17171;SDS011;8701;50.150;8.756;2022-08-21T18:15:26;2.53;;;1.70;;
17171;SDS011;8701;50.150;8.756;2022-08-21T18:19:29;2.20;;;1.67;;
17171;SDS011;8701;50.150;8.756;2022-08-21T18:23:31;5.47;;;2.40;;
17171;SDS011;8701;50.150;8.756;2022-08-21T18:27:34;4.63;;;2.00;;
17171;SDS011;8701;50.150;8.756;2022-08-21T18:31:38;4.60;;;2.00;;
17171;SDS011;8701;50.150;8.756;2022-08-21T18:35:43;5.50;;;2.07;;
17171;SDS011;8701;50.150;8.756;2022-08-21T18:39:45;3.43;;;2.43;;
17171;SDS011;8701;50.150;8.756;2022-08-21T18:43:48;7.93;;;2.50;;
17171;SDS011;8701;50.150;8.756;2022-08-21T18:47:52;4.93;;;2.23;;
17171;SDS011;8701;50.150;8.756;2022-08-21T18:51:57;3.30;;;1.80;;
17171;SDS011;8701;50.150;8.756;2022-08-21T18:55:59;3.17;;;1.93;;
17171;SDS011;8701;50.150;8.756;2022-08-21T19:00:03;3.90;;;2.13;;
17171;SDS011;8701;50.150;8.756;2022-08-21T19:04:12;4.73;;;2.50;;
17171;SDS011;8701;50.150;8.756;2022-08-21T19:08:15;6.10;;;2.30;;
17171;SDS011;8701;50.150;8.756;2022-08-21T19:12:19;3.50;;;1.90;;
17171;SDS011;8701;50.150;8.756;2022-08-21T19:16:28;3.30;;;2.10;;
17171;SDS011;8701;50.150;8.756;2022-08-21T19:20:33;4.47;;;2.13;;
17171;SDS011;8701;50.150;8.756;2022-08-21T19:24:37;2.90;;;2.00;;
17171;SDS011;8701;50.150;8.756;2022-08-21T19:28:40;4.23;;;1.70;;
17171;SDS011;8701;50.150;8.756;2022-08-21T19:32:45;3.63;;;2.20;;
17171;SDS011;8701;50.150;8.756;2022-08-21T19:36:50;1.60;;;1.50;;
17171;SDS011;8701;50.150;8.756;2022-08-21T19:40:56;3.73;;;1.93;;
17171;SDS011;8701;50.150;8.756;2022-08-21T19:44:58;3.67;;;1.97;;
17171;SDS011;8701;50.150;8.756;2022-08-21T19:49:02;7.10;;;2.13;;
17171;SDS011;8701;50.150;8.756;2022-08-21T19:53:07;3.57;;;2.17;;
17171;SDS011;8701;50.150;8.756;2022-08-21T19:57:10;3.30;;;1.90;;
17171;SDS011;8701;50.150;8.756;2022-08-21T20:01:13;3.70;;;1.83;;
17171;SDS011;8701;50.150;8.756;2022-08-21T20:05:17;4.23;;;1.70;;
17171;SDS011;8701;50.150;8.756;2022-08-21T20:09:21;2.00;;;1.80;;
17171;SDS011;8701;50.150;8.756;2022-08-21T20:13:24;3.60;;;2.00;;
17171;SDS011;8701;50.150;8.756;2022-08-21T20:17:26;3.63;;;2.00;;
17171;SDS011;8701;50.150;8.756;2022-08-21T20:21:29;2.20;;;1.43;;
17171;SDS011;8701;50.150;8.756;2022-08-21T20:25:33;2.93;;;1.97;;
17171;SDS011;8701;50.150;8.756;2022-08-21T20:29:36;2.30;;;1.50;;
17171;SDS011;8701;50.150;8.756;2022-08-21T20:33:39;3.83;;;1.90;;
17171;SDS011;8701;50.150;8.756;2022-08-21T20:37:41;2.67;;;1.90;;
17171;SDS011;8701;50.150;8.756;2022-08-21T20:41:45;4.20;;;1.70;;
17171;SDS011;8701;50.150;8.756;2022-08-21T20:45:48;2.17;;;1.57;;
17171;SDS011;8701;50.150;8.756;2022-08-21T20:49:52;3.43;;;1.80;;
17171;SDS011;8701;50.150;8.756;2022-08-21T20:54:01;2.63;;;1.77;;
17171;SDS011;8701;50.150;8.756;2022-08-21T20:58:12;2.87;;;2.00;;
17171;SDS011;8701;50.150;8.756;2022-08-21T21:02:23;2.87;;;2.00;;
17171;SDS011;8701;50.150;8.756;2022-08-21T21:06:32;4.17;;;1.80;;
17171;SDS011;8701;50.150;8.756;2022-08-21T21:10:36;3.10;;;2.13;;
17171;SDS011;8701;50.150;8.756;2022-08-21T21:14:44;2.77;;;1.83;;
17171;SDS011;8701;50.150;8.756;2022-08-21T21:18:50;3.13;;;1.83;;
17171;SDS011;8701;50.150;8.756;2022-08-21T21:22:56;4.07;;;2.07;;
17171;SDS011;8701;50.150;8.756;2022-08-21T21:27:10;2.60;;;2.00;;
17171;SDS011;8701;50.150;8.756;2022-08-21T21:31:18;3.70;;;2.00;;
17171;SDS011;8701;50.150;8.756;2022-08-21T21:35:22;2.30;;;1.60;;
17171;SDS011;8701;50.150;8.756;2022-08-21T21:39:28;2.27;;;1.80;;
17171;SDS011;8701;50.150;8.756;2022-08-21T21:43:46;2.80;;;1.70;;
17171;SDS011;8701;50.150;8.756;2022-08-21T21:48:04;3.63;;;2.07;;
17171;SDS011;8701;50.150;8.756;2022-08-21T21:52:17;3.70;;;1.90;;
17171;SDS011;8701;50.150;8.756;2022-08-21T21:56:32;4.20;;;2.00;;
17171;SDS011;8701;50.150;8.756;2022-08-21T22:00:44;4.20;;;2.10;;
17171;SDS011;8701;50.150;8.756;2022-08-21T22:04:53;5.10;;;1.90;;
17171;SDS011;8701;50.150;8.756;2022-08-21T22:09:02;6.20;;;1.70;;
17171;SDS011;8701;50.150;8.756;2022-08-21T22:13:13;3.57;;;1.70;;
17171;SDS011;8701;50.150;8.756;2022-08-21T22:17:29;3.60;;;1.90;;
17171;SDS011;8701;50.150;8.756;2022-08-21T22:21:38;4.97;;;1.80;;
17171;SDS011;8701;50.150;8.756;2022-08-21T22:25:50;3.67;;;1.83;;
17171;SDS011;8701;50.150;8.756;2022-08-21T22:29:56;3.00;;;1.80;;
17171;SDS011;8701;50.150;8.756;2022-08-21T22:34:00;8.73;;;1.70;;
17171;SDS011;8701;50.150;8.756;2022-08-21T22:38:15;4.13;;;1.70;;
17171;SDS011;8701;50.150;8.756;2022-08-21T22:42:24;2.07;;;1.80;;
17171;SDS011;8701;50.150;8.756;2022-08-21T22:46:29;4.43;;;1.70;;
17171;SDS011;8701;50.150;8.756;2022-08-21T22:50:34;3.37;;;1.77;;
17171;SDS011;8701;50.150;8.756;2022-08-21T22:54:41;2.27;;;1.60;;
17171;SDS011;8701;50.150;8.756;2022-08-21T22:58:51;3.40;;;1.67;;
17171;SDS011;8701;50.150;8.756;2022-08-21T23:02:56;3.83;;;1.90;;
17171;SDS011;8701;50.150;8.756;2022-08-21T23:07:01;3.47;;;1.70;;
17171;SDS011;8701;50.150;8.756;2022-08-21T23:11:12;2.80;;;1.83;;
17171;SDS011;8701;50.150;8.756;2022-08-21T23:15:16;3.60;;;1.63;;
17171;SDS011;8701;50.150;8.756;2022-08-21T23:19:22;3.43;;;1.90;;
17171;SDS011;8701;50.150;8.756;2022-08-21T23:23:36;9.77;;;1.87;;
17171;SDS011;8701;50.150;8.756;2022-08-21T23:27:49;13.03;;;1.80;;
17171;SDS011;8701;50.150;8.756;2022-08-21T23:32:00;3.60;;;1.63;;
17171;SDS011;8701;50.150;8.756;2022-08-21T23:36:14;1.97;;;1.63;;
17171;SDS011;8701;50.150;8.756;2022-08-21T23:40:41;4.83;;;2.10;;
17171;SDS011;8701;50.150;8.756;2022-08-21T23:44:53;4.50;;;1.60;;
17171;SDS011;8701;50.150;8.756;2022-08-21T23:49:06;4.40;;;2.03;;
17171;SDS011;8701;50.150;8.756;2022-08-21T23:53:22;3.13;;;1.60;;
17171;SDS011;8701;50.150;8.756;2022-08-21T23:57:36;5.43;;;1.60;;
